sensor_id;sensor_type;location;lat;lon;timestamp;P1;durP1;ratioP1;P2;durP2;ratioP2
64110;SDS011;50401;48.188;11.566;2023-11-19T00:00:18;8.65;;;4.80;;
64110;SDS011;50401;48.188;11.566;2023-11-19T00:02:43;10.52;;;5.30;;
64110;SDS011;50401;48.188;11.566;2023-11-19T00:05:09;10.38;;;5.70;;
64110;SDS011;50401;48.188;11.566;2023-11-19T00:07:36;11.27;;;5.43;;
64110;SDS011;50401;48.188;11.566;2023-11-19T00:10:02;11.60;;;6.25;;
64110;SDS011;50401;48.188;11.566;2023-11-19T00:12:32;10.35;;;5.55;;
64110;SDS011;50401;48.188;11.566;2023-11-19T00:14:57;9.93;;;4.90;;
64110;SDS011;50401;48.188;11.566;2023-11-19T00:17:22;10.82;;;5.20;;
64110;SDS011;50401;48.188;11.566;2023-11-19T00:19:48;8.15;;;5.20;;
64110;SDS011;50401;48.188;11.566;2023-11-19T00:22:16;9.18;;;4.63;;
64110;SDS011;50401;48.188;11.566;2023-11-19T00:24:41;7.78;;;4.88;;
64110;SDS011;50401;48.188;11.566;2023-11-19T00:27:07;8.70;;;5.15;;
64110;SDS011;50401;48.188;11.566;2023-11-19T00:29:32;11.95;;;6.03;;
64110;SDS011;50401;48.188;11.566;2023-11-19T00:31:58;9.23;;;5.25;;
64110;SDS011;50401;48.188;11.566;2023-11-19T00:34:23;8.40;;;5.03;;
64110;SDS011;50401;48.188;11.566;2023-11-19T00:36:48;9.75;;;5.35;;
64110;SDS011;50401;48.188;11.566;2023-11-19T00:39:14;10.45;;;5.25;;
64110;SDS011;50401;48.188;11.566;2023-11-19T00:41:40;7.50;;;4.90;;
64110;SDS011;50401;48.188;11.566;2023-11-19T00:44:06;10.30;;;5.28;;
64110;SDS011;50401;48.188;11.566;2023-11-19T00:46:31;10.02;;;5.18;;
64110;SDS011;50401;48.188;11.566;2023-11-19T00:48:57;7.90;;;4.30;;
64110;SDS011;50401;48.188;11.566;2023-11-19T00:51:24;8.70;;;5.20;;
64110;SDS011;50401;48.188;11.566;2023-11-19T00:53:51;13.18;;;5.38;;
64110;SDS011;50401;48.188;11.566;2023-11-19T00:56:18;8.48;;;4.70;;
64110;SDS011;50401;48.188;11.566;2023-11-19T00:58:44;9.63;;;5.30;;
64110;SDS011;50401;48.188;11.566;2023-11-19T01:01:11;8.05;;;5.10;;
64110;SDS011;50401;48.188;11.566;2023-11-19T01:03:36;10.27;;;5.68;;
64110;SDS011;50401;48.188;11.566;2023-11-19T01:06:02;9.30;;;5.38;;
64110;SDS011;50401;48.188;11.566;2023-11-19T01:08:27;7.18;;;4.72;;
64110;SDS011;50401;48.188;11.566;2023-11-19T01:10:53;7.55;;;4.75;;
64110;SDS011;50401;48.188;11.566;2023-11-19T01:13:18;6.53;;;4.15;;
64110;SDS011;50401;48.188;11.566;2023-11-19T01:15:44;8.52;;;4.93;;
64110;SDS011;50401;48.188;11.566;2023-11-19T01:18:09;7.75;;;4.47;;
64110;SDS011;50401;48.188;11.566;2023-11-19T01:20:34;7.22;;;4.57;;
64110;SDS011;50401;48.188;11.566;2023-11-19T01:23:00;7.53;;;4.78;;
64110;SDS011;50401;48.188;11.566;2023-11-19T01:25:25;6.70;;;4.60;;
64110;SDS011;50401;48.188;11.566;2023-11-19T01:27:51;8.18;;;4.13;;
64110;SDS011;50401;48.188;11.566;2023-11-19T01:30:16;7.50;;;4.25;;
64110;SDS011;50401;48.188;11.566;2023-11-19T01:32:41;5.57;;;3.60;;
64110;SDS011;50401;48.188;11.566;2023-11-19T01:35:07;7.95;;;4.43;;
64110;SDS011;50401;48.188;11.566;2023-11-19T01:37:33;5.50;;;3.17;;
64110;SDS011;50401;48.188;11.566;2023-11-19T01:39:59;5.97;;;3.05;;
64110;SDS011;50401;48.188;11.566;2023-11-19T01:42:25;6.28;;;3.55;;
64110;SDS011;50401;48.188;11.566;2023-11-19T01:45:00;6.90;;;3.38;;
64110;SDS011;50401;48.188;11.566;2023-11-19T01:47:26;4.53;;;2.83;;
64110;SDS011;50401;48.188;11.566;2023-11-19T01:49:53;4.57;;;2.78;;
64110;SDS011;50401;48.188;11.566;2023-11-19T01:52:19;4.97;;;2.97;;
64110;SDS011;50401;48.188;11.566;2023-11-19T01:54:45;4.97;;;3.10;;
64110;SDS011;50401;48.188;11.566;2023-11-19T01:57:12;5.82;;;2.60;;
64110;SDS011;50401;48.188;11.566;2023-11-19T01:59:38;4.07;;;2.95;;
64110;SDS011;50401;48.188;11.566;2023-11-19T02:02:03;6.20;;;2.83;;
64110;SDS011;50401;48.188;11.566;2023-11-19T02:04:31;3.95;;;2.50;;
64110;SDS011;50401;48.188;11.566;2023-11-19T02:06:57;5.55;;;2.33;;
64110;SDS011;50401;48.188;11.566;2023-11-19T02:09:23;4.55;;;2.53;;
64110;SDS011;50401;48.188;11.566;2023-11-19T02:11:48;6.80;;;2.53;;
64110;SDS011;50401;48.188;11.566;2023-11-19T02:14:16;4.45;;;2.30;;
64110;SDS011;50401;48.188;11.566;2023-11-19T02:16:42;3.20;;;2.10;;
64110;SDS011;50401;48.188;11.566;2023-11-19T02:19:07;5.90;;;2.10;;
64110;SDS011;50401;48.188;11.566;2023-11-19T02:21:35;4.10;;;2.10;;
64110;SDS011;50401;48.188;11.566;2023-11-19T02:24:02;2.33;;;2.00;;
64110;SDS011;50401;48.188;11.566;2023-11-19T02:26:37;3.72;;;2.45;;
64110;SDS011;50401;48.188;11.566;2023-11-19T02:29:16;5.93;;;2.58;;
64110;SDS011;50401;48.188;11.566;2023-11-19T02:31:42;4.53;;;2.58;;
64110;SDS011;50401;48.188;11.566;2023-11-19T02:34:09;5.40;;;2.67;;
64110;SDS011;50401;48.188;11.566;2023-11-19T02:36:37;6.25;;;2.90;;
64110;SDS011;50401;48.188;11.566;2023-11-19T02:39:02;6.38;;;2.50;;
64110;SDS011;50401;48.188;11.566;2023-11-19T02:41:28;5.43;;;2.53;;
64110;SDS011;50401;48.188;11.566;2023-11-19T02:43:54;4.32;;;2.30;;
64110;SDS011;50401;48.188;11.566;2023-11-19T02:46:19;4.18;;;2.15;;
64110;SDS011;50401;48.188;11.566;2023-11-19T02:48:45;3.92;;;2.13;;
64110;SDS011;50401;48.188;11.566;2023-11-19T02:51:11;4.28;;;2.03;;
64110;SDS011;50401;48.188;11.566;2023-11-19T02:53:37;3.30;;;2.00;;
64110;SDS011;50401;48.188;11.566;2023-11-19T02:56:02;2.90;;;1.88;;
64110;SDS011;50401;48.188;11.566;2023-11-19T02:58:42;4.03;;;1.75;;
64110;SDS011;50401;48.188;11.566;2023-11-19T03:01:10;5.15;;;1.58;;
64110;SDS011;50401;48.188;11.566;2023-11-19T03:03:44;2.72;;;1.60;;
64110;SDS011;50401;48.188;11.566;2023-11-19T03:06:10;1.65;;;1.33;;
64110;SDS011;50401;48.188;11.566;2023-11-19T03:08:36;2.20;;;1.17;;
64110;SDS011;50401;48.188;11.566;2023-11-19T03:11:02;3.38;;;1.02;;
64110;SDS011;50401;48.188;11.566;2023-11-19T03:13:27;3.00;;;1.00;;
64110;SDS011;50401;48.188;11.566;2023-11-19T03:15:52;1.27;;;1.17;;
64110;SDS011;50401;48.188;11.566;2023-11-19T03:18:19;3.00;;;0.98;;
64110;SDS011;50401;48.188;11.566;2023-11-19T03:20:45;1.30;;;0.90;;
64110;SDS011;50401;48.188;11.566;2023-11-19T03:23:11;1.63;;;1.00;;
64110;SDS011;50401;48.188;11.566;2023-11-19T03:25:37;1.63;;;1.05;;
64110;SDS011;50401;48.188;11.566;2023-11-19T03:28:03;2.70;;;1.13;;
64110;SDS011;50401;48.188;11.566;2023-11-19T03:30:29;2.90;;;1.30;;
64110;SDS011;50401;48.188;11.566;2023-11-19T03:32:56;1.88;;;1.00;;
64110;SDS011;50401;48.188;11.566;2023-11-19T03:35:22;1.95;;;1.70;;
64110;SDS011;50401;48.188;11.566;2023-11-19T03:37:50;2.25;;;1.02;;
64110;SDS011;50401;48.188;11.566;2023-11-19T03:40:16;1.10;;;0.95;;
64110;SDS011;50401;48.188;11.566;2023-11-19T03:42:42;2.53;;;0.85;;
64110;SDS011;50401;48.188;11.566;2023-11-19T03:45:07;1.30;;;0.93;;
64110;SDS011;50401;48.188;11.566;2023-11-19T03:47:35;6.40;;;1.40;;
64110;SDS011;50401;48.188;11.566;2023-11-19T03:50:01;1.60;;;1.15;;
64110;SDS011;50401;48.188;11.566;2023-11-19T03:52:27;2.55;;;1.52;;
64110;SDS011;50401;48.188;11.566;2023-11-19T03:54:53;2.80;;;1.33;;
64110;SDS011;50401;48.188;11.566;2023-11-19T03:57:20;1.88;;;1.00;;
64110;SDS011;50401;48.188;11.566;2023-11-19T03:59:45;2.53;;;0.88;;
64110;SDS011;50401;48.188;11.566;2023-11-19T04:02:11;0.93;;;0.88;;
64110;SDS011;50401;48.188;11.566;2023-11-19T04:04:36;1.73;;;0.70;;
64110;SDS011;50401;48.188;11.566;2023-11-19T04:07:03;1.33;;;0.73;;
64110;SDS011;50401;48.188;11.566;2023-11-19T04:09:29;0.80;;;0.77;;
64110;SDS011;50401;48.188;11.566;2023-11-19T04:11:55;1.13;;;0.50;;
64110;SDS011;50401;48.188;11.566;2023-11-19T04:14:20;0.52;;;0.50;;
64110;SDS011;50401;48.188;11.566;2023-11-19T04:16:45;0.73;;;0.73;;
64110;SDS011;50401;48.188;11.566;2023-11-19T04:19:11;2.38;;;0.60;;
64110;SDS011;50401;48.188;11.566;2023-11-19T04:21:37;0.50;;;0.50;;
64110;SDS011;50401;48.188;11.566;2023-11-19T04:24:06;0.68;;;0.50;;
64110;SDS011;50401;48.188;11.566;2023-11-19T04:26:31;1.25;;;0.70;;
64110;SDS011;50401;48.188;11.566;2023-11-19T04:28:57;0.60;;;0.60;;
64110;SDS011;50401;48.188;11.566;2023-11-19T04:31:23;0.60;;;0.60;;
64110;SDS011;50401;48.188;11.566;2023-11-19T04:33:49;1.90;;;0.80;;
64110;SDS011;50401;48.188;11.566;2023-11-19T04:36:19;1.10;;;0.68;;
64110;SDS011;50401;48.188;11.566;2023-11-19T04:38:45;0.75;;;0.50;;
64110;SDS011;50401;48.188;11.566;2023-11-19T04:41:11;0.60;;;0.60;;
64110;SDS011;50401;48.188;11.566;2023-11-19T04:43:36;0.70;;;0.60;;
64110;SDS011;50401;48.188;11.566;2023-11-19T04:46:03;0.65;;;0.55;;
64110;SDS011;50401;48.188;11.566;2023-11-19T04:48:29;1.33;;;1.02;;
64110;SDS011;50401;48.188;11.566;2023-11-19T04:50:54;2.35;;;0.95;;
64110;SDS011;50401;48.188;11.566;2023-11-19T04:53:19;2.67;;;0.70;;
64110;SDS011;50401;48.188;11.566;2023-11-19T04:55:45;1.05;;;0.80;;
64110;SDS011;50401;48.188;11.566;2023-11-19T04:58:10;3.15;;;0.70;;
64110;SDS011;50401;48.188;11.566;2023-11-19T05:00:35;0.80;;;0.80;;
64110;SDS011;50401;48.188;11.566;2023-11-19T05:03:01;0.90;;;0.90;;
64110;SDS011;50401;48.188;11.566;2023-11-19T05:05:26;0.47;;;0.47;;
64110;SDS011;50401;48.188;11.566;2023-11-19T05:07:52;1.73;;;0.75;;
64110;SDS011;50401;48.188;11.566;2023-11-19T05:10:17;1.65;;;0.82;;
64110;SDS011;50401;48.188;11.566;2023-11-19T05:12:42;1.48;;;0.50;;
64110;SDS011;50401;48.188;11.566;2023-11-19T05:15:08;1.98;;;0.70;;
64110;SDS011;50401;48.188;11.566;2023-11-19T05:17:33;0.82;;;0.70;;
64110;SDS011;50401;48.188;11.566;2023-11-19T05:19:59;1.58;;;0.70;;
64110;SDS011;50401;48.188;11.566;2023-11-19T05:22:24;2.35;;;0.80;;
64110;SDS011;50401;48.188;11.566;2023-11-19T05:24:51;0.70;;;0.60;;
64110;SDS011;50401;48.188;11.566;2023-11-19T05:27:16;1.73;;;1.08;;
64110;SDS011;50401;48.188;11.566;2023-11-19T05:29:42;0.80;;;0.70;;
64110;SDS011;50401;48.188;11.566;2023-11-19T05:32:08;1.08;;;0.60;;
64110;SDS011;50401;48.188;11.566;2023-11-19T05:34:34;0.65;;;0.60;;
64110;SDS011;50401;48.188;11.566;2023-11-19T05:36:59;1.90;;;0.80;;
64110;SDS011;50401;48.188;11.566;2023-11-19T05:39:24;1.10;;;0.75;;
64110;SDS011;50401;48.188;11.566;2023-11-19T05:41:50;1.80;;;0.90;;
64110;SDS011;50401;48.188;11.566;2023-11-19T05:44:15;0.90;;;0.65;;
64110;SDS011;50401;48.188;11.566;2023-11-19T05:46:42;1.08;;;1.00;;
64110;SDS011;50401;48.188;11.566;2023-11-19T05:49:08;1.98;;;1.48;;
64110;SDS011;50401;48.188;11.566;2023-11-19T05:51:37;0.70;;;0.70;;
64110;SDS011;50401;48.188;11.566;2023-11-19T05:54:03;3.17;;;0.73;;
64110;SDS011;50401;48.188;11.566;2023-11-19T05:56:32;1.10;;;0.90;;
64110;SDS011;50401;48.188;11.566;2023-11-19T05:58:58;3.35;;;1.10;;
64110;SDS011;50401;48.188;11.566;2023-11-19T06:01:26;0.95;;;0.90;;
64110;SDS011;50401;48.188;11.566;2023-11-19T06:03:51;1.00;;;0.90;;
64110;SDS011;50401;48.188;11.566;2023-11-19T06:06:17;0.95;;;0.75;;
64110;SDS011;50401;48.188;11.566;2023-11-19T06:08:42;1.73;;;0.70;;
64110;SDS011;50401;48.188;11.566;2023-11-19T06:11:09;0.82;;;0.60;;
64110;SDS011;50401;48.188;11.566;2023-11-19T06:13:39;0.60;;;0.60;;
64110;SDS011;50401;48.188;11.566;2023-11-19T06:16:05;0.60;;;0.60;;
64110;SDS011;50401;48.188;11.566;2023-11-19T06:18:30;2.22;;;0.70;;
64110;SDS011;50401;48.188;11.566;2023-11-19T06:20:56;0.75;;;0.73;;
64110;SDS011;50401;48.188;11.566;2023-11-19T06:23:21;1.10;;;0.70;;
64110;SDS011;50401;48.188;11.566;2023-11-19T06:25:47;0.60;;;0.60;;
64110;SDS011;50401;48.188;11.566;2023-11-19T06:28:12;0.63;;;0.63;;
64110;SDS011;50401;48.188;11.566;2023-11-19T06:30:38;0.98;;;0.70;;
64110;SDS011;50401;48.188;11.566;2023-11-19T06:33:04;2.63;;;0.70;;
64110;SDS011;50401;48.188;11.566;2023-11-19T06:35:29;0.55;;;0.55;;
64110;SDS011;50401;48.188;11.566;2023-11-19T06:38:00;1.83;;;1.33;;
64110;SDS011;50401;48.188;11.566;2023-11-19T06:40:26;1.58;;;1.08;;
64110;SDS011;50401;48.188;11.566;2023-11-19T06:42:51;2.13;;;0.88;;
64110;SDS011;50401;48.188;11.566;2023-11-19T06:45:17;1.10;;;0.80;;
64110;SDS011;50401;48.188;11.566;2023-11-19T06:47:42;0.63;;;0.63;;
64110;SDS011;50401;48.188;11.566;2023-11-19T06:50:08;1.00;;;0.68;;
64110;SDS011;50401;48.188;11.566;2023-11-19T06:52:34;1.27;;;0.50;;
64110;SDS011;50401;48.188;11.566;2023-11-19T06:54:59;1.13;;;0.63;;
64110;SDS011;50401;48.188;11.566;2023-11-19T06:57:25;0.60;;;0.60;;
64110;SDS011;50401;48.188;11.566;2023-11-19T06:59:50;1.33;;;0.60;;
64110;SDS011;50401;48.188;11.566;2023-11-19T07:02:16;0.70;;;0.70;;
64110;SDS011;50401;48.188;11.566;2023-11-19T07:04:41;1.65;;;0.60;;
64110;SDS011;50401;48.188;11.566;2023-11-19T07:07:07;3.55;;;0.88;;
64110;SDS011;50401;48.188;11.566;2023-11-19T07:09:32;2.38;;;0.52;;
64110;SDS011;50401;48.188;11.566;2023-11-19T07:11:58;0.60;;;0.60;;
64110;SDS011;50401;48.188;11.566;2023-11-19T07:14:25;0.63;;;0.40;;
64110;SDS011;50401;48.188;11.566;2023-11-19T07:16:50;1.60;;;0.40;;
64110;SDS011;50401;48.188;11.566;2023-11-19T07:19:16;0.55;;;0.55;;
64110;SDS011;50401;48.188;11.566;2023-11-19T07:21:41;1.55;;;0.60;;
64110;SDS011;50401;48.188;11.566;2023-11-19T07:24:09;1.40;;;0.50;;
64110;SDS011;50401;48.188;11.566;2023-11-19T07:26:35;0.68;;;0.45;;
64110;SDS011;50401;48.188;11.566;2023-11-19T07:29:02;0.40;;;0.40;;
64110;SDS011;50401;48.188;11.566;2023-11-19T07:31:28;2.63;;;0.40;;
64110;SDS011;50401;48.188;11.566;2023-11-19T07:33:53;0.25;;;0.25;;
64110;SDS011;50401;48.188;11.566;2023-11-19T07:36:19;0.30;;;0.30;;
64110;SDS011;50401;48.188;11.566;2023-11-19T07:38:45;0.40;;;0.40;;
64110;SDS011;50401;48.188;11.566;2023-11-19T07:41:11;2.90;;;0.60;;
64110;SDS011;50401;48.188;11.566;2023-11-19T07:43:39;2.47;;;0.43;;
64110;SDS011;50401;48.188;11.566;2023-11-19T07:46:05;0.60;;;0.40;;
64110;SDS011;50401;48.188;11.566;2023-11-19T07:48:35;0.60;;;0.50;;
64110;SDS011;50401;48.188;11.566;2023-11-19T07:51:01;0.50;;;0.50;;
64110;SDS011;50401;48.188;11.566;2023-11-19T07:53:26;0.80;;;0.60;;
64110;SDS011;50401;48.188;11.566;2023-11-19T07:55:51;0.63;;;0.40;;
64110;SDS011;50401;48.188;11.566;2023-11-19T07:58:17;1.42;;;0.88;;
64110;SDS011;50401;48.188;11.566;2023-11-19T08:00:42;1.58;;;0.52;;
64110;SDS011;50401;48.188;11.566;2023-11-19T08:03:08;0.75;;;0.40;;
64110;SDS011;50401;48.188;11.566;2023-11-19T08:05:33;0.63;;;0.50;;
64110;SDS011;50401;48.188;11.566;2023-11-19T08:07:58;0.47;;;0.40;;
64110;SDS011;50401;48.188;11.566;2023-11-19T08:10:24;0.63;;;0.60;;
64110;SDS011;50401;48.188;11.566;2023-11-19T08:12:49;0.68;;;0.52;;
64110;SDS011;50401;48.188;11.566;2023-11-19T08:15:15;0.52;;;0.45;;
64110;SDS011;50401;48.188;11.566;2023-11-19T08:17:41;1.17;;;0.75;;
64110;SDS011;50401;48.188;11.566;2023-11-19T08:20:06;3.78;;;2.10;;
64110;SDS011;50401;48.188;11.566;2023-11-19T08:22:35;0.60;;;0.60;;
64110;SDS011;50401;48.188;11.566;2023-11-19T08:25:04;0.70;;;0.70;;
64110;SDS011;50401;48.188;11.566;2023-11-19T08:27:30;0.30;;;0.30;;
64110;SDS011;50401;48.188;11.566;2023-11-19T08:29:56;1.02;;;0.85;;
64110;SDS011;50401;48.188;11.566;2023-11-19T08:32:22;1.48;;;0.77;;
64110;SDS011;50401;48.188;11.566;2023-11-19T08:34:48;0.88;;;0.77;;
64110;SDS011;50401;48.188;11.566;2023-11-19T08:37:13;1.17;;;0.60;;
64110;SDS011;50401;48.188;11.566;2023-11-19T08:39:39;3.38;;;0.60;;
64110;SDS011;50401;48.188;11.566;2023-11-19T08:42:05;0.80;;;0.70;;
64110;SDS011;50401;48.188;11.566;2023-11-19T08:44:30;0.95;;;0.70;;
64110;SDS011;50401;48.188;11.566;2023-11-19T08:46:56;0.75;;;0.70;;
64110;SDS011;50401;48.188;11.566;2023-11-19T08:49:21;1.15;;;0.77;;
64110;SDS011;50401;48.188;11.566;2023-11-19T08:51:47;1.35;;;0.60;;
64110;SDS011;50401;48.188;11.566;2023-11-19T08:54:12;3.65;;;0.73;;
64110;SDS011;50401;48.188;11.566;2023-11-19T08:56:39;1.45;;;0.60;;
64110;SDS011;50401;48.188;11.566;2023-11-19T08:59:04;0.82;;;0.70;;
64110;SDS011;50401;48.188;11.566;2023-11-19T09:01:30;0.80;;;0.50;;
64110;SDS011;50401;48.188;11.566;2023-11-19T09:03:55;1.48;;;0.82;;
64110;SDS011;50401;48.188;11.566;2023-11-19T09:06:20;1.38;;;1.27;;
64110;SDS011;50401;48.188;11.566;2023-11-19T09:08:45;0.60;;;0.60;;
64110;SDS011;50401;48.188;11.566;2023-11-19T09:11:11;1.35;;;0.82;;
64110;SDS011;50401;48.188;11.566;2023-11-19T09:13:36;1.25;;;0.70;;
64110;SDS011;50401;48.188;11.566;2023-11-19T09:16:02;0.50;;;0.50;;
64110;SDS011;50401;48.188;11.566;2023-11-19T09:18:28;1.20;;;0.60;;
64110;SDS011;50401;48.188;11.566;2023-11-19T09:20:57;0.60;;;0.60;;
64110;SDS011;50401;48.188;11.566;2023-11-19T09:23:22;2.05;;;0.70;;
64110;SDS011;50401;48.188;11.566;2023-11-19T09:25:50;3.63;;;2.60;;
64110;SDS011;50401;48.188;11.566;2023-11-19T09:28:15;1.00;;;0.80;;
64110;SDS011;50401;48.188;11.566;2023-11-19T09:30:40;3.30;;;1.30;;
64110;SDS011;50401;48.188;11.566;2023-11-19T09:33:06;1.05;;;0.95;;
64110;SDS011;50401;48.188;11.566;2023-11-19T09:35:31;0.90;;;0.70;;
64110;SDS011;50401;48.188;11.566;2023-11-19T09:37:56;0.80;;;0.80;;
64110;SDS011;50401;48.188;11.566;2023-11-19T09:40:22;0.55;;;0.55;;
64110;SDS011;50401;48.188;11.566;2023-11-19T09:42:47;0.85;;;0.63;;
64110;SDS011;50401;48.188;11.566;2023-11-19T09:45:13;0.75;;;0.63;;
64110;SDS011;50401;48.188;11.566;2023-11-19T09:47:42;1.58;;;0.90;;
64110;SDS011;50401;48.188;11.566;2023-11-19T09:50:10;0.73;;;0.73;;
64110;SDS011;50401;48.188;11.566;2023-11-19T09:52:46;0.80;;;0.60;;
64110;SDS011;50401;48.188;11.566;2023-11-19T09:55:12;1.65;;;0.80;;
64110;SDS011;50401;48.188;11.566;2023-11-19T09:57:38;1.50;;;0.98;;
64110;SDS011;50401;48.188;11.566;2023-11-19T10:00:04;3.95;;;0.90;;
64110;SDS011;50401;48.188;11.566;2023-11-19T10:02:33;1.27;;;0.90;;
64110;SDS011;50401;48.188;11.566;2023-11-19T10:04:59;2.25;;;0.82;;
64110;SDS011;50401;48.188;11.566;2023-11-19T10:07:30;1.40;;;0.98;;
64110;SDS011;50401;48.188;11.566;2023-11-19T10:09:57;0.82;;;0.65;;
64110;SDS011;50401;48.188;11.566;2023-11-19T10:12:25;3.55;;;0.93;;
64110;SDS011;50401;48.188;11.566;2023-11-19T10:14:51;1.65;;;0.98;;
64110;SDS011;50401;48.188;11.566;2023-11-19T10:17:17;0.77;;;0.70;;
64110;SDS011;50401;48.188;11.566;2023-11-19T10:19:42;1.63;;;0.55;;
64110;SDS011;50401;48.188;11.566;2023-11-19T10:22:07;1.35;;;0.95;;
64110;SDS011;50401;48.188;11.566;2023-11-19T10:24:33;0.68;;;0.68;;
64110;SDS011;50401;48.188;11.566;2023-11-19T10:27:00;1.63;;;0.80;;
64110;SDS011;50401;48.188;11.566;2023-11-19T10:29:28;4.68;;;1.30;;
64110;SDS011;50401;48.188;11.566;2023-11-19T10:31:58;2.42;;;1.15;;
64110;SDS011;50401;48.188;11.566;2023-11-19T10:34:27;2.03;;;0.80;;
64110;SDS011;50401;48.188;11.566;2023-11-19T10:36:52;0.60;;;0.60;;
64110;SDS011;50401;48.188;11.566;2023-11-19T10:39:18;0.73;;;0.50;;
64110;SDS011;50401;48.188;11.566;2023-11-19T10:41:43;2.10;;;0.60;;
64110;SDS011;50401;48.188;11.566;2023-11-19T10:44:09;0.75;;;0.50;;
64110;SDS011;50401;48.188;11.566;2023-11-19T10:46:41;2.42;;;0.90;;
64110;SDS011;50401;48.188;11.566;2023-11-19T10:49:08;3.40;;;0.90;;
64110;SDS011;50401;48.188;11.566;2023-11-19T10:51:34;1.13;;;0.90;;
64110;SDS011;50401;48.188;11.566;2023-11-19T10:54:03;0.60;;;0.60;;
64110;SDS011;50401;48.188;11.566;2023-11-19T10:56:33;1.45;;;0.80;;
64110;SDS011;50401;48.188;11.566;2023-11-19T10:58:59;2.10;;;0.70;;
64110;SDS011;50401;48.188;11.566;2023-11-19T11:01:37;0.63;;;0.50;;
64110;SDS011;50401;48.188;11.566;2023-11-19T11:04:12;1.20;;;0.65;;
64110;SDS011;50401;48.188;11.566;2023-11-19T11:06:40;1.95;;;0.70;;
64110;SDS011;50401;48.188;11.566;2023-11-19T11:09:06;1.88;;;0.50;;
64110;SDS011;50401;48.188;11.566;2023-11-19T11:11:37;0.63;;;0.40;;
64110;SDS011;50401;48.188;11.566;2023-11-19T11:14:03;0.82;;;0.50;;
64110;SDS011;50401;48.188;11.566;2023-11-19T11:16:30;0.68;;;0.40;;
64110;SDS011;50401;48.188;11.566;2023-11-19T11:18:56;2.40;;;0.60;;
64110;SDS011;50401;48.188;11.566;2023-11-19T11:21:22;2.92;;;0.65;;
64110;SDS011;50401;48.188;11.566;2023-11-19T11:31:48;1.27;;;0.50;;
64110;SDS011;50401;48.188;11.566;2023-11-19T11:34:53;0.70;;;0.60;;
64110;SDS011;50401;48.188;11.566;2023-11-19T11:40:13;0.80;;;0.60;;
64110;SDS011;50401;48.188;11.566;2023-11-19T11:42:41;2.05;;;0.70;;
64110;SDS011;50401;48.188;11.566;2023-11-19T11:45:07;2.05;;;0.50;;
64110;SDS011;50401;48.188;11.566;2023-11-19T11:50:12;0.50;;;0.45;;
64110;SDS011;50401;48.188;11.566;2023-11-19T11:55:28;0.68;;;0.55;;
64110;SDS011;50401;48.188;11.566;2023-11-19T11:58:05;0.43;;;0.43;;
64110;SDS011;50401;48.188;11.566;2023-11-19T12:00:37;0.50;;;0.50;;
64110;SDS011;50401;48.188;11.566;2023-11-19T12:03:07;1.42;;;1.00;;
64110;SDS011;50401;48.188;11.566;2023-11-19T12:05:38;1.98;;;1.00;;
64110;SDS011;50401;48.188;11.566;2023-11-19T12:08:06;1.45;;;0.60;;
64110;SDS011;50401;48.188;11.566;2023-11-19T12:10:45;0.73;;;0.35;;
64110;SDS011;50401;48.188;11.566;2023-11-19T12:13:12;0.82;;;0.80;;
64110;SDS011;50401;48.188;11.566;2023-11-19T12:18:29;0.82;;;0.60;;
64110;SDS011;50401;48.188;11.566;2023-11-19T12:20:56;2.63;;;0.43;;
64110;SDS011;50401;48.188;11.566;2023-11-19T12:23:22;0.47;;;0.47;;
64110;SDS011;50401;48.188;11.566;2023-11-19T12:25:48;0.47;;;0.40;;
64110;SDS011;50401;48.188;11.566;2023-11-19T12:28:16;4.25;;;0.50;;
64110;SDS011;50401;48.188;11.566;2023-11-19T12:33:09;0.40;;;0.40;;
64110;SDS011;50401;48.188;11.566;2023-11-19T12:35:38;1.08;;;0.52;;
64110;SDS011;50401;48.188;11.566;2023-11-19T12:38:19;1.08;;;0.68;;
64110;SDS011;50401;48.188;11.566;2023-11-19T12:41:06;0.93;;;0.55;;
64110;SDS011;50401;48.188;11.566;2023-11-19T12:43:35;2.38;;;0.40;;
64110;SDS011;50401;48.188;11.566;2023-11-19T12:46:02;0.50;;;0.50;;
64110;SDS011;50401;48.188;11.566;2023-11-19T12:48:27;1.70;;;0.60;;
64110;SDS011;50401;48.188;11.566;2023-11-19T12:50:56;2.63;;;0.50;;
64110;SDS011;50401;48.188;11.566;2023-11-19T12:53:23;1.25;;;0.70;;
64110;SDS011;50401;48.188;11.566;2023-11-19T12:55:50;0.70;;;0.70;;
64110;SDS011;50401;48.188;11.566;2023-11-19T12:58:29;2.50;;;0.73;;
64110;SDS011;50401;48.188;11.566;2023-11-19T13:01:04;1.65;;;0.63;;
64110;SDS011;50401;48.188;11.566;2023-11-19T13:03:34;0.98;;;0.45;;
64110;SDS011;50401;48.188;11.566;2023-11-19T13:06:13;0.82;;;0.47;;
64110;SDS011;50401;48.188;11.566;2023-11-19T13:08:41;1.10;;;0.60;;
64110;SDS011;50401;48.188;11.566;2023-11-19T13:11:11;1.10;;;0.57;;
64110;SDS011;50401;48.188;11.566;2023-11-19T13:13:54;3.97;;;0.55;;
64110;SDS011;50401;48.188;11.566;2023-11-19T13:16:28;1.85;;;0.50;;
64110;SDS011;50401;48.188;11.566;2023-11-19T13:18:53;2.58;;;0.60;;
64110;SDS011;50401;48.188;11.566;2023-11-19T13:21:18;1.98;;;0.80;;
64110;SDS011;50401;48.188;11.566;2023-11-19T13:23:44;1.85;;;0.57;;
64110;SDS011;50401;48.188;11.566;2023-11-19T13:26:10;0.60;;;0.50;;
64110;SDS011;50401;48.188;11.566;2023-11-19T13:28:36;1.38;;;0.70;;
64110;SDS011;50401;48.188;11.566;2023-11-19T13:31:02;1.95;;;0.63;;
64110;SDS011;50401;48.188;11.566;2023-11-19T13:33:28;3.03;;;0.70;;
64110;SDS011;50401;48.188;11.566;2023-11-19T13:35:54;0.70;;;0.70;;
64110;SDS011;50401;48.188;11.566;2023-11-19T13:38:20;0.40;;;0.40;;
64110;SDS011;50401;48.188;11.566;2023-11-19T13:40:45;0.60;;;0.60;;
64110;SDS011;50401;48.188;11.566;2023-11-19T13:43:10;1.63;;;0.60;;
64110;SDS011;50401;48.188;11.566;2023-11-19T13:45:36;2.55;;;0.68;;
64110;SDS011;50401;48.188;11.566;2023-11-19T13:48:02;0.77;;;0.63;;
64110;SDS011;50401;48.188;11.566;2023-11-19T13:50:28;0.90;;;0.90;;
64110;SDS011;50401;48.188;11.566;2023-11-19T13:52:54;0.70;;;0.70;;
64110;SDS011;50401;48.188;11.566;2023-11-19T13:55:19;0.70;;;0.70;;
64110;SDS011;50401;48.188;11.566;2023-11-19T13:57:45;1.50;;;0.85;;
64110;SDS011;50401;48.188;11.566;2023-11-19T14:00:11;4.75;;;0.85;;
64110;SDS011;50401;48.188;11.566;2023-11-19T14:02:40;0.50;;;0.50;;
64110;SDS011;50401;48.188;11.566;2023-11-19T14:05:15;1.00;;;0.90;;
64110;SDS011;50401;48.188;11.566;2023-11-19T14:07:44;1.33;;;0.90;;
64110;SDS011;50401;48.188;11.566;2023-11-19T14:10:11;1.52;;;1.10;;
64110;SDS011;50401;48.188;11.566;2023-11-19T14:12:37;3.13;;;0.90;;
64110;SDS011;50401;48.188;11.566;2023-11-19T14:15:03;1.08;;;0.80;;
64110;SDS011;50401;48.188;11.566;2023-11-19T14:17:31;1.38;;;0.95;;
64110;SDS011;50401;48.188;11.566;2023-11-19T14:19:57;1.48;;;1.30;;
64110;SDS011;50401;48.188;11.566;2023-11-19T14:22:22;3.08;;;1.52;;
64110;SDS011;50401;48.188;11.566;2023-11-19T14:24:47;1.05;;;0.90;;
64110;SDS011;50401;48.188;11.566;2023-11-19T14:27:13;9.30;;;0.80;;
64110;SDS011;50401;48.188;11.566;2023-11-19T14:29:38;0.80;;;0.60;;
64110;SDS011;50401;48.188;11.566;2023-11-19T14:32:05;0.60;;;0.60;;
64110;SDS011;50401;48.188;11.566;2023-11-19T14:34:31;0.80;;;0.70;;
64110;SDS011;50401;48.188;11.566;2023-11-19T14:37:00;0.95;;;0.50;;
64110;SDS011;50401;48.188;11.566;2023-11-19T14:39:25;1.40;;;0.60;;
64110;SDS011;50401;48.188;11.566;2023-11-19T14:41:51;0.80;;;0.70;;
64110;SDS011;50401;48.188;11.566;2023-11-19T14:44:17;2.92;;;0.60;;
64110;SDS011;50401;48.188;11.566;2023-11-19T14:46:44;0.77;;;0.55;;
64110;SDS011;50401;48.188;11.566;2023-11-19T14:49:10;2.17;;;1.00;;
64110;SDS011;50401;48.188;11.566;2023-11-19T14:51:36;1.58;;;0.80;;